createdAt,value
2022-08-09T00:01:58.219Z,19.69
2022-08-09T00:06:16.614Z,19.70
2022-08-09T00:09:04.284Z,19.70
2022-08-09T00:12:27.070Z,19.67
2022-08-09T00:15:58.865Z,19.65
2022-08-09T00:19:23.684Z,19.61
2022-08-09T00:22:49.222Z,19.62
2022-08-09T00:26:14.475Z,19.63
2022-08-09T00:29:39.719Z,19.64
2022-08-09T00:33:17.911Z,19.65
2022-08-09T00:36:41.647Z,19.66
2022-08-09T00:40:12.713Z,19.66
2022-08-09T00:44:14.088Z,19.63
2022-08-09T00:47:24.731Z,19.62
2022-08-09T00:50:47.235Z,19.60
2022-08-09T00:54:14.367Z,19.59
2022-08-09T00:57:37.583Z,19.58
2022-08-09T01:01:08.145Z,19.58
2022-08-09T01:04:44.125Z,19.59
2022-08-09T01:08:12.433Z,19.59
2022-08-09T01:11:55.679Z,19.59
2022-08-09T01:15:22.131Z,19.57
2022-08-09T01:19:02.027Z,19.54
2022-08-09T01:22:55.276Z,19.52
2022-08-09T01:26:53.463Z,19.49
2022-08-09T01:30:33.590Z,19.48
2022-08-09T01:34:01.733Z,19.45
2022-08-09T01:37:43.176Z,19.44
2022-08-09T01:41:14.354Z,19.39
2022-08-09T01:44:39.454Z,19.36
2022-08-09T01:48:06.096Z,19.35
2022-08-09T01:51:32.279Z,19.35
2022-08-09T01:54:58.351Z,19.35
2022-08-09T01:58:24.146Z,19.35
2022-08-09T02:02:00.081Z,19.38
2022-08-09T02:05:37.919Z,19.41
2022-08-09T02:09:06.553Z,19.40
2022-08-09T02:12:30.751Z,19.40
2022-08-09T02:15:55.339Z,19.38
2022-08-09T02:19:19.640Z,19.38
2022-08-09T02:22:52.688Z,19.36
2022-08-09T02:26:25.228Z,19.36
2022-08-09T02:29:52.814Z,19.36
2022-08-09T02:33:17.382Z,19.34
2022-08-09T02:36:45.811Z,19.33
2022-08-09T02:40:15.917Z,19.32
2022-08-09T02:43:54.652Z,19.29
2022-08-09T02:47:20.994Z,19.28
2022-08-09T02:50:54.293Z,19.23
2022-08-09T02:54:21.768Z,19.21
2022-08-09T02:58:00.224Z,19.20
2022-08-09T03:01:29.685Z,19.18
2022-08-09T03:05:07.499Z,19.13
2022-08-09T03:08:39.375Z,19.12
2022-08-09T03:12:11.314Z,19.10
2022-08-09T03:15:40.669Z,19.09
2022-08-09T03:19:59.588Z,19.11
2022-08-09T03:23:14.624Z,19.10
2022-08-09T03:26:39.656Z,19.09
2022-08-09T03:30:09.739Z,19.08
2022-08-09T03:33:54.233Z,19.08
2022-08-09T03:37:56.706Z,19.08
2022-08-09T03:40:57.936Z,19.05
2022-08-09T03:44:20.999Z,19.04
2022-08-09T03:47:50.744Z,19.03
2022-08-09T03:51:54.124Z,19.01
2022-08-09T03:54:57.379Z,18.99
2022-08-09T03:58:21.227Z,18.97
2022-08-09T04:01:44.103Z,18.96
2022-08-09T04:05:13.907Z,18.97
2022-08-09T04:08:48.619Z,18.99
2022-08-09T04:12:37.227Z,19.01
2022-08-09T04:16:20.494Z,19.00
2022-08-09T04:19:50.846Z,18.99
2022-08-09T04:23:24.410Z,18.97
2022-08-09T04:26:46.517Z,18.97
2022-08-09T04:30:11.141Z,18.95
2022-08-09T04:33:33.966Z,18.98
2022-08-09T04:37:14.970Z,18.99
2022-08-09T04:40:56.025Z,19.01
2022-08-09T04:44:18.742Z,19.06
2022-08-09T04:47:45.338Z,19.11
2022-08-09T04:51:22.074Z,19.12
2022-08-09T04:54:45.015Z,19.14
2022-08-09T04:58:09.601Z,19.16
2022-08-09T05:01:31.264Z,19.19
2022-08-09T05:04:55.807Z,19.21
2022-08-09T05:08:17.650Z,19.20
2022-08-09T05:11:39.522Z,19.22
2022-08-09T05:15:11.157Z,19.26
2022-08-09T05:18:55.367Z,19.27
2022-08-09T05:22:33.502Z,19.27
2022-08-09T05:25:57.114Z,19.28
2022-08-09T05:29:22.690Z,19.29
2022-08-09T05:32:50.779Z,19.30
2022-08-09T05:36:15.575Z,19.32
2022-08-09T05:39:43.278Z,19.38
2022-08-09T05:43:07.248Z,19.45
2022-08-09T05:46:30.198Z,19.48
2022-08-09T05:50:24.209Z,19.51
2022-08-09T05:53:56.665Z,19.56
2022-08-09T05:57:19.152Z,19.63
2022-08-09T06:00:41.066Z,19.67
2022-08-09T06:04:05.512Z,19.67
2022-08-09T06:07:29.372Z,19.69
2022-08-09T06:10:51.599Z,19.75
2022-08-09T06:14:13.138Z,19.80
2022-08-09T06:17:39.726Z,19.80
2022-08-09T06:21:04.130Z,19.80
2022-08-09T06:24:28.058Z,19.83
2022-08-09T06:27:51.440Z,19.87
2022-08-09T06:31:13.623Z,19.93
2022-08-09T06:34:35.654Z,19.96
2022-08-09T06:38:05.729Z,20.02
2022-08-09T06:42:07.531Z,20.08
2022-08-09T06:46:05.082Z,20.14
2022-08-09T06:48:56.381Z,20.17
2022-08-09T06:52:23.501Z,20.18
2022-08-09T06:55:48.414Z,20.18
2022-08-09T07:00:51.955Z,20.20
2022-08-09T07:02:55.718Z,20.24
2022-08-09T07:06:18.987Z,20.23
2022-08-09T07:09:57.344Z,20.25
2022-08-09T07:13:28.285Z,20.28
2022-08-09T07:16:57.672Z,20.31
2022-08-09T07:20:20.548Z,20.37
2022-08-09T07:23:46.715Z,20.46
2022-08-09T07:27:26.519Z,20.50
2022-08-09T07:30:55.791Z,20.57
2022-08-09T07:34:20.281Z,20.65
2022-08-09T07:37:45.610Z,20.73
2022-08-09T07:41:11.431Z,20.84
2022-08-09T07:44:51.798Z,20.90
2022-08-09T07:48:25.502Z,21.01
2022-08-09T07:52:05.419Z,21.08
2022-08-09T07:55:41.590Z,21.15
2022-08-09T07:59:25.426Z,21.24
2022-08-09T08:02:58.124Z,21.26
2022-08-09T08:06:21.173Z,21.30
2022-08-09T08:09:51.451Z,21.33
2022-08-09T08:13:15.531Z,21.40
2022-08-09T08:16:39.699Z,21.48
2022-08-09T08:20:13.774Z,21.56
2022-08-09T08:23:35.564Z,21.64
2022-08-09T08:26:58.883Z,21.72
2022-08-09T08:30:20.751Z,21.81
2022-08-09T08:33:53.505Z,21.87
2022-08-09T08:37:17.910Z,21.96
2022-08-09T08:40:40.000Z,22.04
2022-08-09T08:44:04.533Z,22.16
2022-08-09T08:47:27.589Z,22.20
2022-08-09T08:50:51.869Z,22.20
2022-08-09T08:54:20.203Z,22.19
2022-08-09T08:57:43.491Z,22.23
2022-08-09T09:01:20.819Z,22.27
2022-08-09T09:04:52.755Z,22.33
2022-08-09T09:08:29.988Z,22.44
2022-08-09T09:11:55.290Z,22.53
2022-08-09T09:15:28.456Z,22.58
2022-08-09T09:19:21.430Z,22.65
2022-08-09T09:22:51.819Z,22.74
2022-08-09T09:26:17.146Z,22.79
2022-08-09T09:33:44.989Z,22.87
2022-08-09T09:37:08.542Z,22.97
2022-08-09T09:40:46.347Z,23.06
2022-08-09T09:44:12.100Z,23.13
2022-08-09T09:47:42.161Z,23.13
2022-08-09T09:51:26.072Z,23.17
2022-08-09T09:55:28.491Z,23.22
2022-08-09T09:58:50.230Z,23.32
2022-08-09T10:02:15.504Z,23.41
2022-08-09T10:06:04.033Z,23.51
2022-08-09T10:09:22.134Z,23.59
2022-08-09T10:12:55.339Z,23.62
2022-08-09T10:16:57.284Z,23.69
2022-08-09T10:20:32.533Z,23.80
2022-08-09T10:24:03.852Z,23.88
2022-08-09T10:27:34.619Z,23.95
2022-08-09T10:34:44.941Z,24.19
2022-08-09T10:38:55.238Z,24.27
2022-08-09T10:41:52.073Z,24.40
2022-08-09T10:45:16.699Z,24.42
2022-08-09T10:48:47.947Z,24.45
2022-08-09T10:52:30.684Z,24.46
2022-08-09T10:56:17.527Z,24.40
2022-08-09T10:59:55.393Z,24.42
2022-08-09T11:03:51.226Z,24.40
2022-08-09T11:07:55.791Z,24.48
2022-08-09T11:11:13.926Z,24.54
2022-08-09T11:14:38.213Z,24.56
2022-08-09T11:18:03.681Z,24.51
2022-08-09T11:21:57.229Z,24.44
2022-08-09T11:25:47.880Z,24.39
2022-08-09T11:30:05.074Z,24.43
2022-08-09T11:33:44.641Z,24.49
2022-08-09T11:37:18.326Z,24.57
2022-08-09T11:40:42.044Z,24.59
2022-08-09T11:44:05.783Z,24.57
2022-08-09T11:47:46.429Z,24.52
2022-08-09T11:53:00.618Z,24.56
2022-08-09T11:55:51.585Z,24.54
2022-08-09T11:59:33.018Z,24.60
2022-08-09T12:02:56.263Z,24.70
2022-08-09T12:06:26.453Z,24.79
2022-08-09T12:09:53.864Z,24.90
2022-08-09T12:14:08.474Z,25.00
2022-08-09T12:17:27.829Z,25.16
2022-08-09T12:20:57.446Z,25.31
2022-08-09T12:24:24.557Z,25.39
2022-08-09T12:28:59.954Z,25.36
2022-08-09T12:31:59.333Z,25.34
2022-08-09T12:35:19.078Z,25.38
2022-08-09T12:38:43.514Z,25.47
2022-08-09T12:42:09.032Z,25.48
2022-08-09T12:45:34.356Z,25.31
2022-08-09T12:49:00.972Z,25.20
2022-08-09T12:52:58.584Z,25.14
2022-08-09T12:56:12.209Z,25.14
2022-08-09T12:59:57.388Z,25.16
2022-08-09T13:03:54.087Z,25.25
2022-08-09T13:07:13.478Z,25.28
2022-08-09T13:10:46.667Z,25.34
2022-08-09T13:14:41.027Z,25.41
2022-08-09T13:18:05.851Z,25.49
2022-08-09T13:22:37.218Z,25.55
2022-08-09T13:25:14.946Z,25.60
2022-08-09T13:28:39.575Z,25.66
2022-08-09T13:32:16.285Z,25.76
2022-08-09T13:36:38.769Z,25.74
2022-08-09T13:41:20.953Z,25.66
2022-08-09T13:43:09.853Z,25.61
2022-08-09T13:47:15.900Z,25.64
2022-08-09T13:50:30.047Z,25.61
2022-08-09T13:53:52.942Z,25.54
2022-08-09T13:57:36.656Z,25.62
2022-08-09T14:00:58.635Z,25.63
2022-08-09T14:04:23.876Z,25.72
2022-08-09T14:07:49.263Z,25.84
2022-08-09T14:11:16.188Z,25.94
2022-08-09T14:14:37.986Z,25.98
2022-08-09T14:18:18.858Z,25.96
2022-08-09T14:21:43.284Z,25.95
2022-08-09T14:25:05.812Z,25.99
2022-08-09T14:28:32.755Z,26.09
2022-08-09T14:31:55.076Z,26.17
2022-08-09T14:35:17.254Z,26.23
2022-08-09T14:38:41.093Z,26.30
2022-08-09T14:42:03.627Z,26.42
2022-08-09T14:47:01.071Z,26.47
2022-08-09T14:49:10.588Z,26.48
2022-08-09T14:52:32.447Z,26.59
2022-08-09T14:55:56.290Z,26.81
2022-08-09T14:59:18.307Z,26.85
2022-08-09T15:02:42.821Z,26.77
2022-08-09T15:06:11.063Z,26.92
2022-08-09T15:10:07.099Z,26.93
2022-08-09T15:13:16.274Z,26.85
2022-08-09T15:16:38.338Z,26.74
2022-08-09T15:20:02.665Z,26.64
2022-08-09T15:24:03.689Z,26.59
2022-08-09T15:27:07.240Z,26.53
2022-08-09T15:30:48.656Z,26.51
2022-08-09T15:34:31.977Z,26.52
2022-08-09T15:37:57.197Z,26.36
2022-08-09T15:41:33.331Z,26.33
2022-08-09T15:44:58.284Z,26.29
2022-08-09T15:48:28.522Z,26.28
2022-08-09T15:52:04.827Z,26.34
2022-08-09T15:55:27.307Z,26.32
2022-08-09T15:58:49.863Z,26.38
2022-08-09T16:02:15.886Z,26.51
2022-08-09T16:05:53.804Z,26.64
2022-08-09T16:09:16.898Z,26.81
2022-08-09T16:12:50.238Z,27.02
2022-08-09T16:16:17.170Z,27.21
2022-08-09T16:19:49.350Z,27.42
2022-08-09T16:23:23.101Z,27.55
2022-08-09T16:26:48.710Z,27.71
2022-08-09T16:30:16.863Z,27.63
2022-08-09T16:33:51.306Z,27.64
2022-08-09T16:37:13.316Z,27.66
2022-08-09T16:40:40.711Z,27.78
2022-08-09T16:44:03.330Z,27.78
2022-08-09T16:48:40.749Z,27.66
2022-08-09T16:51:08.635Z,27.68
2022-08-09T16:54:36.441Z,27.64
2022-08-09T16:58:10.164Z,27.51
2022-08-09T17:01:33.759Z,27.29
2022-08-09T17:04:56.049Z,27.12
2022-08-09T17:08:46.140Z,26.98
2022-08-09T17:11:59.463Z,26.87
2022-08-09T17:15:31.213Z,26.79
2022-08-09T17:19:05.168Z,26.68
2022-08-09T17:22:30.936Z,26.55
2022-08-09T17:25:54.897Z,26.47
2022-08-09T17:29:20.361Z,26.33
2022-08-09T17:32:44.034Z,26.27
2022-08-09T17:36:09.154Z,26.13
2022-08-09T17:39:52.168Z,26.01
2022-08-09T17:43:34.641Z,25.96
2022-08-09T17:46:57.881Z,25.94
2022-08-09T17:50:36.076Z,25.94
2022-08-09T17:53:59.802Z,26.07
2022-08-09T17:58:02.076Z,25.86
2022-08-09T18:01:03.820Z,25.77
2022-08-09T18:04:25.516Z,25.62
2022-08-09T18:07:48.974Z,25.50
2022-08-09T18:11:16.382Z,25.34
2022-08-09T18:14:42.185Z,25.26
2022-08-09T18:18:25.380Z,25.10
2022-08-09T18:21:50.386Z,24.93
2022-08-09T18:25:15.921Z,24.89
2022-08-09T18:30:39.001Z,24.83
2022-08-09T18:32:19.272Z,24.81
2022-08-09T18:35:58.122Z,24.74
2022-08-09T18:39:22.255Z,24.67
2022-08-09T18:42:46.713Z,24.62
2022-08-09T18:46:48.545Z,24.54
2022-08-09T18:49:50.322Z,24.43
2022-08-09T18:53:13.754Z,24.30
2022-08-09T18:56:38.532Z,24.17
2022-08-09T19:00:04.489Z,24.07
2022-08-09T19:03:26.767Z,23.99
2022-08-09T19:06:51.032Z,23.90
2022-08-09T19:10:17.623Z,23.79
2022-08-09T19:13:51.276Z,23.69
2022-08-09T19:17:15.135Z,23.63
2022-08-09T19:20:38.912Z,23.51
2022-08-09T19:24:33.555Z,23.49
2022-08-09T19:27:43.494Z,23.42
2022-08-09T19:31:07.824Z,23.36
2022-08-09T19:34:31.170Z,23.30
2022-08-09T19:37:56.154Z,23.20
2022-08-09T19:41:33.361Z,23.12
2022-08-09T19:44:57.570Z,23.04
2022-08-09T19:49:00.292Z,22.98
2022-08-09T19:52:02.788Z,22.93
2022-08-09T19:55:30.396Z,22.87
2022-08-09T19:58:56.422Z,22.81
2022-08-09T20:04:07.437Z,22.74
2022-08-09T20:06:23.039Z,22.66
2022-08-09T20:09:47.292Z,22.60
2022-08-09T20:13:10.431Z,22.53
2022-08-09T20:16:48.981Z,22.43
2022-08-09T20:20:14.768Z,22.34
2022-08-09T20:23:38.996Z,22.27
2022-08-09T20:27:08.056Z,22.19
2022-08-09T20:30:30.555Z,22.08
2022-08-09T20:33:58.344Z,22.03
2022-08-09T20:37:23.286Z,21.92
2022-08-09T20:40:45.100Z,21.75
2022-08-09T20:44:12.401Z,21.64
2022-08-09T20:47:48.014Z,21.57
2022-08-09T20:51:19.232Z,21.50
2022-08-09T20:54:52.737Z,21.43
2022-08-09T20:58:20.225Z,21.37
2022-08-09T21:01:50.500Z,21.34
2022-08-09T21:05:56.425Z,21.29
2022-08-09T21:08:55.053Z,21.24
2022-08-09T21:15:52.075Z,21.16
2022-08-09T21:20:18.242Z,21.13
2022-08-09T21:23:02.001Z,21.05
2022-08-09T21:26:24.212Z,20.98
2022-08-09T21:29:49.015Z,20.88
2022-08-09T21:33:10.982Z,20.78
2022-08-09T21:36:39.293Z,20.67
2022-08-09T21:40:30.383Z,20.61
2022-08-09T21:43:57.888Z,20.56
2022-08-09T21:47:20.377Z,20.51
2022-08-09T21:50:43.453Z,20.43
2022-08-09T21:54:13.697Z,20.39
2022-08-09T21:57:59.181Z,20.34
2022-08-09T22:01:44.845Z,20.27
2022-08-09T22:05:16.769Z,20.19
2022-08-09T22:08:44.120Z,20.13
2022-08-09T22:12:18.348Z,20.08
2022-08-09T22:15:40.723Z,20.00
2022-08-09T22:19:02.302Z,19.93
2022-08-09T22:22:44.416Z,19.87
2022-08-09T22:26:12.595Z,19.82
2022-08-09T22:29:48.748Z,19.78
2022-08-09T22:33:12.149Z,19.72
2022-08-09T22:36:46.232Z,19.68
2022-08-09T22:40:18.224Z,19.57
2022-08-09T22:44:01.944Z,19.44
2022-08-09T22:48:15.519Z,19.34
2022-08-09T22:51:10.270Z,19.23
2022-08-09T22:54:32.754Z,19.12
2022-08-09T22:58:00.102Z,19.03
2022-08-09T23:01:21.933Z,18.97
2022-08-09T23:04:53.668Z,18.96
2022-08-09T23:08:33.959Z,18.91
2022-08-09T23:11:55.969Z,18.83
2022-08-09T23:15:17.774Z,18.82
2022-08-09T23:18:39.886Z,18.74
2022-08-09T23:22:03.504Z,18.68
2022-08-09T23:25:25.663Z,18.61
2022-08-09T23:28:47.466Z,18.51
2022-08-09T23:32:09.257Z,18.42
2022-08-09T23:35:30.767Z,18.35
2022-08-09T23:39:13.727Z,18.23
2022-08-09T23:42:35.729Z,18.20
2022-08-09T23:45:57.342Z,18.12
2022-08-09T23:49:24.600Z,18.05
2022-08-09T23:52:46.659Z,18.01
2022-08-09T23:56:12.162Z,17.94
2022-08-09T23:59:48.209Z,17.86
